createdAt,value
2018-06-24T00:01:25.642Z,10.23
2018-06-24T00:03:52.592Z,9.00
2018-06-24T00:06:19.552Z,10.70
2018-06-24T00:08:46.465Z,10.10
2018-06-24T00:11:13.766Z,9.80
2018-06-24T00:13:40.849Z,10.70
2018-06-24T00:16:07.727Z,9.23
2018-06-24T00:18:34.683Z,9.90
2018-06-24T00:21:01.577Z,10.60
2018-06-24T00:23:28.525Z,10.00
2018-06-24T00:25:55.542Z,10.93
2018-06-24T00:28:23.166Z,10.07
2018-06-24T00:30:50.109Z,10.23
2018-06-24T00:33:16.994Z,11.73
2018-06-24T00:35:44.668Z,10.73
2018-06-24T00:38:12.269Z,10.57
2018-06-24T00:40:39.222Z,10.87
2018-06-24T00:43:06.149Z,11.40
2018-06-24T00:45:33.100Z,11.67
2018-06-24T00:48:00.017Z,10.00
2018-06-24T00:50:26.955Z,11.03
2018-06-24T00:52:54.565Z,10.33
2018-06-24T00:55:21.492Z,12.33
2018-06-24T00:57:48.417Z,11.20
2018-06-24T01:00:15.411Z,9.90
2018-06-24T01:02:42.275Z,9.90
2018-06-24T01:05:09.197Z,9.97
2018-06-24T01:07:36.306Z,8.80
2018-06-24T01:10:03.285Z,9.40
2018-06-24T01:12:30.240Z,9.63
2018-06-24T01:14:57.166Z,10.97
2018-06-24T01:17:24.068Z,10.17
2018-06-24T01:19:51.013Z,11.17
2018-06-24T01:22:17.944Z,8.80
2018-06-24T01:24:44.825Z,9.37
2018-06-24T01:27:11.820Z,9.90
2018-06-24T01:29:38.668Z,9.10
2018-06-24T01:32:05.531Z,8.97
2018-06-24T01:34:32.460Z,10.60
2018-06-24T01:36:59.415Z,9.20
2018-06-24T01:39:26.292Z,10.13
2018-06-24T01:41:53.885Z,9.53
2018-06-24T01:44:20.801Z,8.83
2018-06-24T01:46:47.676Z,8.97
2018-06-24T01:49:14.599Z,9.17
2018-06-24T01:51:41.533Z,9.03
2018-06-24T01:54:08.459Z,10.10
2018-06-24T01:56:35.372Z,11.10
2018-06-24T01:59:02.282Z,10.73
2018-06-24T02:01:29.224Z,9.77
2018-06-24T02:03:56.092Z,10.03
2018-06-24T02:06:23.045Z,10.70
2018-06-24T02:08:49.921Z,10.20
2018-06-24T02:11:16.849Z,10.77
2018-06-24T02:13:43.787Z,9.83
2018-06-24T02:16:10.721Z,10.40
2018-06-24T02:18:37.602Z,8.83
2018-06-24T02:21:04.503Z,9.03
2018-06-24T02:23:31.408Z,10.30
2018-06-24T02:25:58.298Z,9.43
2018-06-24T02:28:25.225Z,10.30
2018-06-24T02:30:52.096Z,9.30
2018-06-24T02:33:19.023Z,9.70
2018-06-24T02:35:45.893Z,10.10
2018-06-24T02:38:12.844Z,9.83
2018-06-24T02:40:54.501Z,9.63
2018-06-24T02:46:28.090Z,11.17
2018-06-24T02:49:08.562Z,9.50
2018-06-24T02:51:36.144Z,8.97
2018-06-24T02:54:03.087Z,10.13
2018-06-24T02:56:29.996Z,9.07
2018-06-24T02:58:56.884Z,10.47
2018-06-24T03:01:23.901Z,10.90
2018-06-24T03:03:50.763Z,10.03
2018-06-24T03:06:17.660Z,9.80
2018-06-24T03:08:44.548Z,9.20
2018-06-24T03:11:11.424Z,10.33
2018-06-24T03:13:38.328Z,10.07
2018-06-24T03:16:05.233Z,9.63
2018-06-24T03:18:32.173Z,10.13
2018-06-24T03:20:59.048Z,10.80
2018-06-24T03:23:25.992Z,9.60
2018-06-24T03:25:52.869Z,15.73
2018-06-24T03:28:19.771Z,10.00
2018-06-24T03:30:46.622Z,13.47
2018-06-24T03:33:13.566Z,11.73
2018-06-24T03:35:40.413Z,9.93
2018-06-24T03:38:07.346Z,11.27
2018-06-24T03:40:34.293Z,10.40
2018-06-24T03:43:01.145Z,10.53
2018-06-24T03:45:28.030Z,11.83
2018-06-24T03:47:55.686Z,10.27
2018-06-24T03:50:22.634Z,9.37
2018-06-24T03:52:50.293Z,10.07
2018-06-24T03:55:17.918Z,9.47
2018-06-24T03:57:44.847Z,10.80
2018-06-24T04:00:11.704Z,9.17
2018-06-24T04:02:38.709Z,9.97
2018-06-24T04:05:05.604Z,11.13
2018-06-24T04:07:32.528Z,11.33
2018-06-24T04:09:59.401Z,10.47
2018-06-24T04:12:26.311Z,11.80
2018-06-24T04:14:53.186Z,11.57
2018-06-24T04:17:20.143Z,10.37
2018-06-24T04:19:47.042Z,11.70
2018-06-24T04:22:13.962Z,11.67
2018-06-24T04:24:40.899Z,11.00
2018-06-24T04:27:21.355Z,11.30
2018-06-24T04:29:49.169Z,12.43
2018-06-24T04:32:16.033Z,10.73
2018-06-24T04:34:42.963Z,9.33
2018-06-24T04:37:09.832Z,12.33
2018-06-24T04:39:36.763Z,11.43
2018-06-24T04:42:03.752Z,11.33
2018-06-24T04:44:30.693Z,10.63
2018-06-24T04:46:57.548Z,10.97
2018-06-24T04:49:36.512Z,11.73
2018-06-24T04:52:05.585Z,12.47
2018-06-24T04:54:33.279Z,10.80
2018-06-24T04:57:00.188Z,11.27
2018-06-24T04:59:27.123Z,10.07
2018-06-24T05:01:54.776Z,9.07
2018-06-24T05:04:21.651Z,9.17
2018-06-24T05:06:49.312Z,9.97
2018-06-24T05:09:16.979Z,8.77
2018-06-24T05:11:44.577Z,8.40
2018-06-24T05:14:11.529Z,12.60
2018-06-24T05:16:38.429Z,7.70
2018-06-24T05:19:06.154Z,9.00
2018-06-24T05:21:33.049Z,8.00
2018-06-24T05:23:59.992Z,7.67
2018-06-24T05:26:26.906Z,7.87
2018-06-24T05:28:53.915Z,7.43
2018-06-24T05:31:20.768Z,9.77
2018-06-24T05:33:47.629Z,10.53
2018-06-24T05:36:14.557Z,8.30
2018-06-24T05:38:41.429Z,7.83
2018-06-24T05:41:08.393Z,9.30
2018-06-24T05:43:35.257Z,7.97
2018-06-24T05:46:02.239Z,9.80
2018-06-24T05:48:29.141Z,9.40
2018-06-24T05:50:56.857Z,9.20
2018-06-24T05:53:24.595Z,8.23
2018-06-24T05:55:51.520Z,9.33
2018-06-24T05:58:18.430Z,8.63
2018-06-24T06:00:45.482Z,10.33
2018-06-24T06:03:22.704Z,10.03
2018-06-24T06:05:50.351Z,9.97
2018-06-24T06:08:18.098Z,11.83
2018-06-24T06:10:59.170Z,9.10
2018-06-24T06:13:27.039Z,10.20
2018-06-24T06:15:54.019Z,8.23
2018-06-24T06:18:21.056Z,10.20
2018-06-24T06:20:48.679Z,10.00
2018-06-24T06:23:15.542Z,9.87
2018-06-24T06:25:42.464Z,9.87
2018-06-24T06:28:09.339Z,8.20
2018-06-24T06:30:36.276Z,10.80
2018-06-24T06:33:03.256Z,9.73
2018-06-24T06:35:30.940Z,9.53
2018-06-24T06:37:57.873Z,10.07
2018-06-24T06:40:24.873Z,8.10
2018-06-24T06:42:51.798Z,8.40
2018-06-24T06:45:18.860Z,9.70
2018-06-24T06:47:46.446Z,8.67
2018-06-24T06:50:13.339Z,9.10
2018-06-24T06:52:40.313Z,7.70
2018-06-24T06:55:07.285Z,7.33
2018-06-24T06:57:34.160Z,7.77
2018-06-24T07:00:01.860Z,10.57
2018-06-24T07:02:28.800Z,9.03
2018-06-24T07:04:55.672Z,7.97
2018-06-24T07:07:22.594Z,6.23
2018-06-24T07:09:49.462Z,6.83
2018-06-24T07:12:16.437Z,5.03
2018-06-24T07:14:44.113Z,5.40
2018-06-24T07:17:11.129Z,7.73
2018-06-24T07:19:38.008Z,6.20
2018-06-24T07:22:04.958Z,5.03
2018-06-24T07:24:31.812Z,5.80
2018-06-24T07:26:58.759Z,6.30
2018-06-24T07:29:25.631Z,6.40
2018-06-24T07:31:52.524Z,5.13
2018-06-24T07:34:19.452Z,8.23
2018-06-24T07:36:47.084Z,5.23
2018-06-24T07:39:14.051Z,6.00
2018-06-24T07:41:40.989Z,6.30
2018-06-24T07:44:07.932Z,6.33
2018-06-24T07:46:34.826Z,6.23
2018-06-24T07:49:01.759Z,8.73
2018-06-24T07:51:29.447Z,8.93
2018-06-24T07:53:56.454Z,6.50
2018-06-24T07:56:23.396Z,7.30
2018-06-24T07:58:50.288Z,7.57
2018-06-24T08:01:17.232Z,5.43
2018-06-24T08:03:44.115Z,5.63
2018-06-24T08:06:11.055Z,5.50
2018-06-24T08:08:37.932Z,5.60
2018-06-24T08:11:04.939Z,5.67
2018-06-24T08:13:31.824Z,6.67
2018-06-24T08:15:58.748Z,5.23
2018-06-24T08:18:25.672Z,6.37
2018-06-24T08:20:52.620Z,5.73
2018-06-24T08:23:19.647Z,6.37
2018-06-24T08:25:46.517Z,9.53
2018-06-24T08:28:13.452Z,5.80
2018-06-24T08:30:40.375Z,7.07
2018-06-24T08:33:07.320Z,8.30
2018-06-24T08:35:34.261Z,7.07
2018-06-24T08:38:15.195Z,9.30
2018-06-24T08:40:43.692Z,7.63
2018-06-24T08:43:10.640Z,8.87
2018-06-24T08:45:44.652Z,11.43
2018-06-24T08:48:11.572Z,9.73
2018-06-24T08:50:40.125Z,12.23
2018-06-24T08:53:07.072Z,9.43
2018-06-24T08:55:34.095Z,8.63
2018-06-24T08:58:01.737Z,9.60
2018-06-24T09:00:41.554Z,8.53
2018-06-24T09:03:10.564Z,11.30
2018-06-24T09:05:42.042Z,8.23
2018-06-24T09:08:22.364Z,10.73
2018-06-24T09:10:49.320Z,13.13
2018-06-24T09:13:24.139Z,12.33
2018-06-24T09:15:51.201Z,12.20
2018-06-24T09:18:18.361Z,13.57
2018-06-24T09:20:45.353Z,11.40
2018-06-24T09:23:12.958Z,11.00
2018-06-24T09:25:39.987Z,12.00
2018-06-24T09:28:06.894Z,18.40
2018-06-24T09:30:34.788Z,13.87
2018-06-24T09:33:01.793Z,15.40
2018-06-24T09:35:28.749Z,16.93
2018-06-24T09:37:55.729Z,12.43
2018-06-24T09:40:22.610Z,15.50
2018-06-24T09:42:49.630Z,17.23
2018-06-24T09:45:16.977Z,17.30
2018-06-24T09:47:43.877Z,18.87
2018-06-24T09:50:10.822Z,23.60
2018-06-24T09:52:39.358Z,22.07
2018-06-24T09:55:06.467Z,17.47
2018-06-24T09:57:33.473Z,20.13
2018-06-24T10:00:01.140Z,16.90
2018-06-24T10:02:28.095Z,18.40
2018-06-24T10:04:55.000Z,19.93
2018-06-24T10:07:21.957Z,18.60
2018-06-24T10:09:49.020Z,16.00
2018-06-24T10:12:15.961Z,14.37
2018-06-24T10:14:50.677Z,15.27
2018-06-24T10:17:18.136Z,16.23
2018-06-24T10:19:45.053Z,16.30
2018-06-24T10:22:12.668Z,15.67
2018-06-24T10:24:40.207Z,14.80
2018-06-24T10:27:07.335Z,15.10
2018-06-24T10:29:36.600Z,14.33
2018-06-24T10:32:03.947Z,14.33
2018-06-24T10:34:30.813Z,15.30
2018-06-24T10:39:47.692Z,18.70
2018-06-24T10:42:14.677Z,15.77
2018-06-24T10:44:41.650Z,20.03
2018-06-24T10:47:08.592Z,15.13
2018-06-24T10:49:36.272Z,16.60
2018-06-24T10:52:03.257Z,17.20
2018-06-24T10:54:30.205Z,16.20
2018-06-24T10:56:57.177Z,17.27
2018-06-24T10:59:24.816Z,16.77
2018-06-24T11:01:51.769Z,17.60
2018-06-24T11:04:18.731Z,16.30
2018-06-24T11:06:45.640Z,18.37
2018-06-24T11:09:13.708Z,15.80
2018-06-24T11:11:40.953Z,14.00
2018-06-24T11:28:59.041Z,11.80
2018-06-24T11:31:28.016Z,10.37
2018-06-24T11:34:07.564Z,11.73
2018-06-24T11:36:35.305Z,10.97
2018-06-24T11:39:02.322Z,10.70
2018-06-24T11:41:29.203Z,12.50
2018-06-24T11:47:18.273Z,10.50
2018-06-24T11:49:45.248Z,12.17
2018-06-24T11:52:12.089Z,16.00
2018-06-24T11:54:39.075Z,10.90
2018-06-24T11:57:05.969Z,11.30
2018-06-24T11:59:38.066Z,10.00
2018-06-24T12:02:05.178Z,9.80
2018-06-24T12:04:43.773Z,11.50
2018-06-24T12:07:25.283Z,8.80
2018-06-24T12:09:55.624Z,10.27
2018-06-24T12:12:36.593Z,11.87
2018-06-24T12:15:17.885Z,10.37
2018-06-24T12:17:59.639Z,10.73
2018-06-24T12:20:37.609Z,11.93
2018-06-24T12:23:13.455Z,10.40
2018-06-24T12:25:54.505Z,9.70
2018-06-24T12:28:22.017Z,11.90
2018-06-24T12:30:49.787Z,8.77
2018-06-24T12:33:16.884Z,9.17
2018-06-24T12:35:43.828Z,8.73
2018-06-24T12:38:10.756Z,9.83
2018-06-24T12:40:37.692Z,7.90
2018-06-24T12:43:04.713Z,8.20
2018-06-24T12:45:33.472Z,9.30
2018-06-24T12:48:00.420Z,10.37
2018-06-24T12:50:28.394Z,8.50
2018-06-24T12:52:55.558Z,10.00
2018-06-24T12:55:28.966Z,9.70
2018-06-24T12:58:03.466Z,8.77
2018-06-24T13:00:45.119Z,8.57
2018-06-24T13:03:25.432Z,8.30
2018-06-24T13:06:05.690Z,9.00
2018-06-24T13:08:43.659Z,10.97
2018-06-24T13:11:11.462Z,9.53
2018-06-24T13:13:40.974Z,9.03
2018-06-24T13:16:08.014Z,9.13
2018-06-24T13:18:34.953Z,8.23
2018-06-24T13:21:01.941Z,10.47
2018-06-24T13:23:29.762Z,12.03
2018-06-24T13:25:57.385Z,11.10
2018-06-24T13:28:24.325Z,11.70
2018-06-24T13:30:53.226Z,9.67
2018-06-24T13:33:20.548Z,9.37
2018-06-24T13:35:48.086Z,30.60
2018-06-24T13:38:14.984Z,9.60
2018-06-24T13:40:41.969Z,11.87
2018-06-24T13:43:08.924Z,14.53
2018-06-24T13:45:37.117Z,10.43
2018-06-24T13:48:04.041Z,19.13
2018-06-24T13:50:32.220Z,10.27
2018-06-24T13:52:59.098Z,9.90
2018-06-24T13:55:26.787Z,9.17
2018-06-24T13:57:53.944Z,12.37
2018-06-24T14:00:21.026Z,14.10
2018-06-24T14:02:48.247Z,9.40
2018-06-24T14:05:15.168Z,10.20
2018-06-24T14:07:42.045Z,9.30
2018-06-24T14:10:12.360Z,9.83
2018-06-24T14:12:42.144Z,10.20
2018-06-24T14:15:09.131Z,11.20
2018-06-24T14:17:36.009Z,9.87
2018-06-24T14:20:04.010Z,8.77
2018-06-24T14:22:30.880Z,9.33
2018-06-24T14:24:57.728Z,10.40
2018-06-24T14:27:24.642Z,8.67
2018-06-24T14:29:52.244Z,8.60
2018-06-24T14:32:21.199Z,9.27
2018-06-24T14:34:48.080Z,9.07
2018-06-24T14:37:15.204Z,8.97
2018-06-24T14:39:42.220Z,9.10
2018-06-24T14:42:10.115Z,9.83
2018-06-24T14:44:36.983Z,9.23
2018-06-24T14:47:04.018Z,9.47
2018-06-24T14:49:30.894Z,9.77
2018-06-24T14:51:57.879Z,11.17
2018-06-24T14:54:25.864Z,10.20
2018-06-24T14:56:53.665Z,9.70
2018-06-24T14:59:20.570Z,9.57
2018-06-24T15:02:02.221Z,11.30
2018-06-24T15:04:36.953Z,12.10
2018-06-24T15:07:10.209Z,10.23
2018-06-24T15:09:43.653Z,12.70
2018-06-24T15:15:00.610Z,11.03
2018-06-24T15:17:36.700Z,9.27
2018-06-24T15:20:06.292Z,8.90
2018-06-24T15:22:52.345Z,10.47
2018-06-24T15:25:27.524Z,9.17
2018-06-24T15:30:53.561Z,9.00
2018-06-24T15:33:31.787Z,8.83
2018-06-24T15:36:14.914Z,8.57
2018-06-24T15:38:56.591Z,8.60
2018-06-24T15:41:38.436Z,8.83
2018-06-24T15:44:06.292Z,8.13
2018-06-24T15:46:33.514Z,8.13
2018-06-24T15:49:01.185Z,7.93
2018-06-24T15:51:33.577Z,8.20
2018-06-24T15:54:10.632Z,7.93
2018-06-24T15:56:53.470Z,7.83
2018-06-24T15:59:33.542Z,7.80
2018-06-24T16:02:05.647Z,7.33
2018-06-24T16:04:32.681Z,7.70
2018-06-24T16:07:00.956Z,7.87
2018-06-24T16:09:29.286Z,7.47
2018-06-24T16:12:11.807Z,7.20
2018-06-24T16:14:38.880Z,6.70
2018-06-24T16:17:05.916Z,6.17
2018-06-24T16:19:34.343Z,6.67
2018-06-24T16:22:01.204Z,6.93
2018-06-24T16:24:28.881Z,7.40
2018-06-24T16:26:56.497Z,6.57
2018-06-24T16:29:24.004Z,5.90
2018-06-24T16:31:51.633Z,5.63
2018-06-24T16:34:18.501Z,5.80
2018-06-24T16:36:47.762Z,5.20
2018-06-24T16:39:14.716Z,5.90
2018-06-24T16:41:42.040Z,5.60
2018-06-24T16:44:08.952Z,5.10
2018-06-24T16:46:37.480Z,5.63
2018-06-24T16:49:05.407Z,4.47
2018-06-24T16:51:32.753Z,4.40
2018-06-24T16:54:00.525Z,5.23
2018-06-24T16:56:30.344Z,5.10
2018-06-24T17:01:55.361Z,5.97
2018-06-24T17:04:35.487Z,5.23
2018-06-24T17:07:13.723Z,4.37
2018-06-24T17:09:54.704Z,3.77
2018-06-24T17:12:36.294Z,5.47
2018-06-24T17:15:15.694Z,4.67
2018-06-24T17:17:54.352Z,4.77
2018-06-24T17:20:33.412Z,4.37
2018-06-24T17:23:10.373Z,4.70
2018-06-24T17:25:48.494Z,4.50
2018-06-24T17:28:30.855Z,8.67
2018-06-24T17:31:07.376Z,8.20
2018-06-24T17:33:46.691Z,8.33
2018-06-24T17:36:24.333Z,6.60
2018-06-24T17:39:02.661Z,5.63
2018-06-24T17:41:45.672Z,9.40
2018-06-24T17:44:29.173Z,5.50
2018-06-24T17:47:09.568Z,5.17
2018-06-24T17:49:51.399Z,6.20
2018-06-24T17:52:33.439Z,6.77
2018-06-24T17:55:12.739Z,9.10
2018-06-24T17:57:52.788Z,6.80
2018-06-24T18:00:33.023Z,6.30
2018-06-24T18:05:58.291Z,7.03
2018-06-24T18:08:38.075Z,6.93
2018-06-24T18:11:21.027Z,8.00
2018-06-24T18:13:58.459Z,6.83
2018-06-24T18:16:36.352Z,6.97
2018-06-24T18:19:15.014Z,5.70
2018-06-24T18:21:54.091Z,6.67
2018-06-24T18:27:14.263Z,7.07
2018-06-24T18:29:56.373Z,6.00
2018-06-24T18:32:35.675Z,6.30
2018-06-24T18:35:17.598Z,5.90
2018-06-24T18:37:57.550Z,5.20
2018-06-24T18:40:38.885Z,4.90
2018-06-24T18:43:18.268Z,7.30
2018-06-24T18:45:58.125Z,5.17
2018-06-24T18:48:34.933Z,4.57
2018-06-24T18:51:16.915Z,4.77
2018-06-24T18:53:55.829Z,4.50
2018-06-24T18:56:37.394Z,4.20
2018-06-24T18:59:17.403Z,3.43
2018-06-24T19:01:57.891Z,4.63
2018-06-24T19:04:36.740Z,4.23
2018-06-24T19:07:16.808Z,4.60
2018-06-24T19:09:55.813Z,5.50
2018-06-24T19:12:32.191Z,7.70
2018-06-24T19:15:12.223Z,4.80
2018-06-24T19:17:52.362Z,4.63
2018-06-24T19:20:34.267Z,4.23
2018-06-24T19:23:11.846Z,4.90
2018-06-24T19:25:51.656Z,6.40
2018-06-24T19:28:29.291Z,4.73
2018-06-24T19:31:10.421Z,4.70
2018-06-24T19:33:51.564Z,5.07
2018-06-24T19:36:29.233Z,5.00
2018-06-24T19:41:52.587Z,5.20
2018-06-24T19:44:33.589Z,4.77
2018-06-24T19:47:14.904Z,4.80
2018-06-24T19:49:54.286Z,4.83
2018-06-24T19:52:22.790Z,4.60
2018-06-24T19:54:50.564Z,4.37
2018-06-24T20:00:17.158Z,4.30
2018-06-24T20:02:57.563Z,3.90
2018-06-24T20:05:39.687Z,4.40
2018-06-24T20:08:21.927Z,5.70
2018-06-24T20:11:04.089Z,4.10
2018-06-24T20:13:46.551Z,5.20
2018-06-24T20:16:20.546Z,4.03
2018-06-24T20:19:02.371Z,4.63
2018-06-24T20:21:44.426Z,4.27
2018-06-24T20:27:12.034Z,3.67
2018-06-24T20:29:52.998Z,4.93
2018-06-24T20:32:21.935Z,3.70
2018-06-24T20:34:57.735Z,3.87
2018-06-24T20:37:34.159Z,4.93
2018-06-24T20:40:02.193Z,4.90
2018-06-24T20:42:42.548Z,4.00
2018-06-24T20:45:15.644Z,3.60
2018-06-24T20:47:42.630Z,3.83
2018-06-24T20:50:09.692Z,3.90
2018-06-24T20:52:36.849Z,3.57
2018-06-24T20:55:08.667Z,3.70
2018-06-24T20:57:35.715Z,3.37
2018-06-24T21:00:02.678Z,3.90
2018-06-24T21:02:36.388Z,4.13
2018-06-24T21:05:03.349Z,4.00
2018-06-24T21:07:30.950Z,3.83
2018-06-24T21:09:57.802Z,3.20
2018-06-24T21:12:24.661Z,3.57
2018-06-24T21:14:51.612Z,5.53
2018-06-24T21:17:18.505Z,3.93
2018-06-24T21:19:54.935Z,4.53
2018-06-24T21:22:31.440Z,3.67
2018-06-24T21:24:59.580Z,3.60
2018-06-24T21:27:26.704Z,3.40
2018-06-24T21:30:05.556Z,3.90
2018-06-24T21:32:42.022Z,3.30
2018-06-24T21:35:08.967Z,4.60
2018-06-24T21:37:35.879Z,3.93
2018-06-24T21:40:02.835Z,5.17
2018-06-24T21:42:34.710Z,4.60
2018-06-24T21:45:15.813Z,5.30
2018-06-24T21:47:43.586Z,4.80
2018-06-24T21:50:10.456Z,4.90
2018-06-24T21:52:37.448Z,4.40
2018-06-24T21:55:04.466Z,4.60
2018-06-24T21:57:32.139Z,6.47
2018-06-24T21:59:59.820Z,5.23
2018-06-24T22:02:26.680Z,5.80
2018-06-24T22:04:53.679Z,5.30
2018-06-24T22:07:21.450Z,5.17
2018-06-24T22:09:49.123Z,4.77
2018-06-24T22:12:30.503Z,4.23
2018-06-24T22:14:59.340Z,4.60
2018-06-24T22:17:26.913Z,4.73
2018-06-24T22:19:55.655Z,4.43
2018-06-24T22:22:23.687Z,4.73
2018-06-24T22:24:51.465Z,5.17
2018-06-24T22:27:19.248Z,5.60
2018-06-24T22:29:47.803Z,4.40
2018-06-24T22:32:15.723Z,4.60
2018-06-24T22:34:44.332Z,4.57
2018-06-24T22:37:12.251Z,5.20
2018-06-24T22:39:39.841Z,4.53
2018-06-24T22:42:07.720Z,4.57
2018-06-24T22:44:35.642Z,9.23
2018-06-24T22:47:04.210Z,9.23
2018-06-24T22:49:34.864Z,5.60
2018-06-24T22:52:02.119Z,8.20
2018-06-24T22:54:30.715Z,5.27
2018-06-24T22:56:59.294Z,4.73
2018-06-24T22:59:48.584Z,5.03
2018-06-24T23:02:16.343Z,3.63
2018-06-24T23:04:43.287Z,4.40
2018-06-24T23:07:10.506Z,4.37
2018-06-24T23:09:50.387Z,4.07
2018-06-24T23:12:32.461Z,4.40
2018-06-24T23:15:11.081Z,4.13
2018-06-24T23:17:48.292Z,5.30
2018-06-24T23:20:27.639Z,4.67
2018-06-24T23:23:06.797Z,4.63
2018-06-24T23:25:44.284Z,4.67
2018-06-24T23:28:24.436Z,3.47
2018-06-24T23:31:04.701Z,3.67
2018-06-24T23:33:47.627Z,4.40
2018-06-24T23:36:27.424Z,3.33
2018-06-24T23:39:05.538Z,4.13
2018-06-24T23:41:45.691Z,3.57
2018-06-24T23:44:24.089Z,3.90
2018-06-24T23:47:02.268Z,3.70
2018-06-24T23:49:44.321Z,3.77
2018-06-24T23:52:24.467Z,3.83
2018-06-24T23:55:05.529Z,3.47
2018-06-24T23:57:44.225Z,3.30
